Time;durP1;ratioP1;P1;durP2;ratioP2;P2;SDS_P1;SDS_P2;PMS_P1;PMS_P2;Temp;Humidity;BMP_temperature;BMP_pressure;BME280_temperature;BME280_humidity;BME280_pressure;Samples;Min_cycle;Max_cycle;Signal;HPM_P1;HPM_P2
2023/07/18 00:01:27;;;;;;;10.37;5.73;;;17.30;99.40;;;;;;5042547;28;20183;-56
2023/07/18 00:03:52;;;;;;;16.13;6.67;;;17.30;99.40;;;;;;5040749;28;20561;-56
2023/07/18 00:06:18;;;;;;;8.53;5.03;;;17.20;99.40;;;;;;5043932;28;20473;-56
2023/07/18 00:08:44;;;;;;;14.37;6.47;;;17.20;99.60;;;;;;5039439;28;20859;-56
2023/07/18 00:11:10;;;;;;;8.87;5.23;;;17.10;99.90;;;;;;5046720;28;20179;-57
2023/07/18 00:13:35;;;;;;;7.87;5.80;;;17.00;99.90;;;;;;5043987;28;20425;-56
2023/07/18 00:16:01;;;;;;;9.37;5.90;;;17.00;99.90;;;;;;5039743;28;20202;-55
2023/07/18 00:18:27;;;;;;;9.40;6.67;;;16.90;99.90;;;;;;5044799;28;20206;-55
2023/07/18 00:20:52;;;;;;;7.63;5.87;;;16.90;99.90;;;;;;5035885;28;20187;-55
2023/07/18 00:23:18;;;;;;;10.43;6.30;;;16.90;99.90;;;;;;5039562;28;20183;-55
2023/07/18 00:25:44;;;;;;;10.43;6.37;;;16.90;99.90;;;;;;5043215;28;20230;-56
2023/07/18 00:28:10;;;;;;;9.90;6.33;;;16.80;99.90;;;;;;5039604;28;20425;-55
2023/07/18 00:30:35;;;;;;;9.10;5.90;;;16.80;99.90;;;;;;5041781;28;20186;-56
2023/07/18 00:33:01;;;;;;;9.37;6.03;;;16.80;99.90;;;;;;5041768;28;20194;-56
2023/07/18 00:35:27;;;;;;;11.50;5.40;;;16.70;99.90;;;;;;5038272;28;20195;-56
2023/07/18 00:37:53;;;;;;;9.20;6.60;;;16.70;99.90;;;;;;5042569;28;20191;-57
2023/07/18 00:40:18;;;;;;;10.73;6.00;;;16.60;99.90;;;;;;5037905;28;20538;-56
2023/07/18 00:42:47;;;;;;;7.87;5.50;;;16.60;99.90;;;;;;5042773;28;20179;-56
2023/07/18 00:45:14;;;;;;;15.40;6.30;;;16.50;99.90;;;;;;5034867;28;20668;-55
2023/07/18 00:47:42;;;;;;;14.20;6.10;;;16.50;99.90;;;;;;5040468;28;20552;-57
2023/07/18 00:50:11;;;;;;;11.20;5.73;;;16.50;99.90;;;;;;5040488;28;20429;-56
2023/07/18 00:52:51;;;;;;;11.50;6.00;;;16.50;99.90;;;;;;5042238;28;20433;-55
2023/07/18 00:55:17;;;;;;;9.03;5.57;;;16.50;99.90;;;;;;5040600;28;20440;-56
2023/07/18 00:57:45;;;;;;;13.23;5.80;;;16.50;99.90;;;;;;5039261;28;20608;-55
2023/07/18 01:00:12;;;;;;;8.70;5.37;;;16.50;99.90;;;;;;5037244;28;20945;-56
2023/07/18 01:02:40;;;;;;;9.03;5.60;;;16.50;99.90;;;;;;5038639;28;20844;-55
2023/07/18 01:05:07;;;;;;;8.07;5.43;;;16.40;99.90;;;;;;5037836;28;20446;-55
2023/07/18 01:07:34;;;;;;;10.83;5.50;;;16.40;99.90;;;;;;5036294;28;20485;-56
2023/07/18 01:10:28;;;;;;;8.47;5.63;;;16.30;99.90;;;;;;5034922;28;20423;-55
2023/07/18 01:12:56;;;;;;;10.37;6.00;;;16.20;99.90;;;;;;5037211;28;20422;-55
2023/07/18 01:15:23;;;;;;;12.33;6.10;;;16.20;99.90;;;;;;5037165;28;20457;-56
2023/07/18 01:17:49;;;;;;;12.73;5.90;;;16.20;99.90;;;;;;5039610;28;20417;-55
2023/07/18 01:20:19;;;;;;;10.70;6.03;;;16.10;99.90;;;;;;5040458;28;20426;-55
2023/07/18 01:22:46;;;;;;;7.90;5.67;;;16.10;99.90;;;;;;5036508;28;20433;-55
2023/07/18 01:25:14;;;;;;;9.53;5.40;;;16.00;99.90;;;;;;5039470;28;20438;-54
2023/07/18 01:27:40;;;;;;;11.33;5.67;;;16.00;99.90;;;;;;5033359;28;20626;-55
2023/07/18 01:30:06;;;;;;;6.80;4.83;;;15.90;99.90;;;;;;5036350;28;20974;-54
2023/07/18 01:32:33;;;;;;;8.30;5.00;;;15.90;99.90;;;;;;5039611;28;20436;-55
2023/07/18 01:35:05;;;;;;;12.40;6.00;;;15.90;99.90;;;;;;5036616;28;20433;-56
2023/07/18 01:37:31;;;;;;;15.93;4.93;;;15.80;99.90;;;;;;5038336;28;20786;-55
2023/07/18 01:39:57;;;;;;;10.17;5.83;;;15.70;99.90;;;;;;5035338;28;20434;-55
2023/07/18 01:42:23;;;;;;;6.63;5.20;;;15.70;99.90;;;;;;5039735;28;20802;-55
2023/07/18 01:44:48;;;;;;;14.83;5.40;;;15.70;99.90;;;;;;5040408;28;20433;-57
2023/07/18 01:47:14;;;;;;;7.73;5.20;;;15.60;99.90;;;;;;5024343;28;20329;-56
2023/07/18 01:49:40;;;;;;;8.53;4.93;;;15.60;99.90;;;;;;5036421;28;20174;-55
2023/07/18 01:52:06;;;;;;;7.50;4.80;;;15.60;99.90;;;;;;5040477;28;20669;-56
2023/07/18 01:54:31;;;;;;;9.60;4.37;;;15.60;99.90;;;;;;5038308;28;20207;-55
2023/07/18 01:56:57;;;;;;;15.93;5.20;;;15.50;99.90;;;;;;5038926;28;20481;-55
2023/07/18 01:59:22;;;;;;;7.07;5.30;;;15.50;99.90;;;;;;5039346;28;20232;-56
2023/07/18 02:01:48;;;;;;;8.90;4.90;;;15.50;99.90;;;;;;5039179;28;20632;-55
2023/07/18 02:04:14;;;;;;;9.03;4.90;;;15.40;99.90;;;;;;5036549;28;20202;-56
2023/07/18 02:06:40;;;;;;;15.00;5.40;;;15.40;99.90;;;;;;5032095;28;20268;-55
2023/07/18 02:09:07;;;;;;;8.87;5.07;;;15.40;99.90;;;;;;5037795;28;20174;-54
2023/07/18 02:11:32;;;;;;;9.13;5.03;;;15.30;99.90;;;;;;5034397;28;20429;-54
2023/07/18 02:13:58;;;;;;;8.60;4.00;;;15.30;99.90;;;;;;5031308;28;20429;-55
2023/07/18 02:16:24;;;;;;;7.90;4.00;;;15.30;99.90;;;;;;5034805;28;20196;-55
2023/07/18 02:18:49;;;;;;;6.57;4.60;;;15.20;98.30;;;;;;5039161;28;20229;-53
2023/07/18 02:21:15;;;;;;;7.00;4.67;;;15.20;99.10;;;;;;5040189;28;20206;-54
2023/07/18 02:23:40;;;;;;;6.60;4.50;;;15.10;99.90;;;;;;5034404;28;20807;-55
2023/07/18 02:26:06;;;;;;;11.90;5.30;;;15.10;99.90;;;;;;5034561;28;20198;-54
2023/07/18 02:28:31;;;;;;;6.50;4.10;;;15.10;99.90;;;;;;5037698;28;20220;-54
2023/07/18 02:30:57;;;;;;;8.33;5.23;;;15.00;99.90;;;;;;5045784;28;20183;-54
2023/07/18 02:33:23;;;;;;;10.43;5.53;;;15.00;99.90;;;;;;5047696;28;20202;-54
2023/07/18 02:35:49;;;;;;;7.13;4.90;;;15.00;99.90;;;;;;5039030;28;20559;-54
2023/07/18 02:38:15;;;;;;;8.17;4.60;;;15.00;99.90;;;;;;5046700;28;20198;-54
2023/07/18 02:40:44;;;;;;;8.00;4.63;;;15.00;99.90;;;;;;5038854;28;20426;-55
2023/07/18 02:43:10;;;;;;;8.23;4.60;;;15.00;99.90;;;;;;5040375;28;20175;-55
2023/07/18 02:45:35;;;;;;;11.27;5.10;;;14.90;99.90;;;;;;5041258;28;20458;-56
2023/07/18 02:48:01;;;;;;;11.73;5.00;;;14.90;99.90;;;;;;5042996;28;20277;-54
2023/07/18 02:50:27;;;;;;;6.33;4.30;;;14.90;99.90;;;;;;5045041;28;20266;-55
2023/07/18 02:52:52;;;;;;;13.13;5.00;;;14.90;99.90;;;;;;5036844;28;20226;-55
2023/07/18 02:55:18;;;;;;;8.77;4.43;;;14.80;99.90;;;;;;5042553;28;20583;-54
2023/07/18 02:57:43;;;;;;;11.53;5.40;;;14.80;99.90;;;;;;5040997;28;20175;-56
2023/07/18 03:00:19;;;;;;;6.87;4.50;;;14.80;99.90;;;;;;5039712;28;20222;-56
2023/07/18 03:02:49;;;;;;;9.37;4.90;;;14.80;99.90;;;;;;5040526;28;20171;-56
2023/07/18 03:05:16;;;;;;;6.37;4.87;;;14.80;99.90;;;;;;5040509;28;20481;-56
2023/07/18 03:07:43;;;;;;;7.70;4.93;;;14.70;99.90;;;;;;5041694;28;20457;-54
2023/07/18 03:10:09;;;;;;;8.00;4.23;;;14.70;99.90;;;;;;5039748;28;20844;-56
2023/07/18 03:12:34;;;;;;;8.63;4.90;;;14.70;99.90;;;;;;5036904;28;20945;-55
2023/07/18 03:15:00;;;;;;;6.33;4.23;;;14.60;99.90;;;;;;5036564;28;20505;-56
2023/07/18 03:17:25;;;;;;;14.50;5.80;;;14.60;99.90;;;;;;5041612;28;20178;-56
2023/07/18 03:19:51;;;;;;;10.10;4.17;;;14.50;99.90;;;;;;5039012;28;20185;-57
2023/07/18 03:22:16;;;;;;;9.27;4.67;;;14.50;99.90;;;;;;5043826;28;20210;-55
2023/07/18 03:24:42;;;;;;;10.07;4.60;;;14.50;99.90;;;;;;5040560;28;20183;-56
2023/07/18 03:27:08;;;;;;;6.27;3.67;;;14.40;99.90;;;;;;5034931;28;20242;-56
2023/07/18 03:29:33;;;;;;;8.60;4.57;;;14.40;99.90;;;;;;5034032;28;20299;-56
2023/07/18 03:32:00;;;;;;;5.67;4.27;;;14.30;99.90;;;;;;5021703;28;20221;-56
2023/07/18 03:34:28;;;;;;;8.23;5.27;;;14.30;99.90;;;;;;5030678;28;20179;-56
2023/07/18 03:36:54;;;;;;;9.90;4.03;;;14.30;99.90;;;;;;5031023;28;20454;-54
2023/07/18 03:39:19;;;;;;;11.30;4.50;;;14.30;99.90;;;;;;5030942;28;20488;-55
2023/07/18 03:41:45;;;;;;;6.47;4.80;;;14.30;99.90;;;;;;5037071;28;20186;-55
2023/07/18 03:44:10;;;;;;;6.67;3.97;;;14.30;99.90;;;;;;5042065;28;20200;-54
2023/07/18 03:46:36;;;;;;;6.87;4.60;;;14.20;99.90;;;;;;5032806;28;20256;-56
2023/07/18 03:49:02;;;;;;;7.77;3.50;;;14.20;99.90;;;;;;5038688;28;20250;-56
2023/07/18 03:51:28;;;;;;;10.83;4.13;;;14.10;99.90;;;;;;5033267;28;20179;-56
2023/07/18 03:53:53;;;;;;;7.00;4.07;;;14.10;99.90;;;;;;5028634;28;20278;-54
2023/07/18 03:56:20;;;;;;;7.33;4.30;;;14.10;99.90;;;;;;5027834;28;20196;-55
2023/07/18 03:58:46;;;;;;;6.73;3.93;;;14.10;99.90;;;;;;5033485;28;20190;-55
2023/07/18 04:01:12;;;;;;;9.50;5.27;;;14.10;99.90;;;;;;5038217;28;20413;-54
2023/07/18 04:03:38;;;;;;;9.37;5.33;;;14.10;99.90;;;;;;5035361;28;20183;-54
2023/07/18 04:06:04;;;;;;;6.70;4.23;;;14.10;99.90;;;;;;5037830;28;20468;-55
2023/07/18 04:08:29;;;;;;;11.03;5.13;;;14.00;99.90;;;;;;5039859;28;20671;-54
2023/07/18 04:10:58;;;;;;;9.90;5.10;;;14.00;99.90;;;;;;5044041;28;20171;-55
2023/07/18 04:13:27;;;;;;;13.43;4.57;;;14.00;99.90;;;;;;5035434;28;20175;-54
2023/07/18 04:15:54;;;;;;;12.90;4.80;;;14.00;99.90;;;;;;5028313;28;20465;-54
2023/07/18 04:18:20;;;;;;;6.70;4.70;;;14.10;99.90;;;;;;5039207;28;20433;-52
2023/07/18 04:20:46;;;;;;;6.70;4.33;;;14.00;99.90;;;;;;5029718;28;20419;-54
2023/07/18 04:23:11;;;;;;;10.73;4.70;;;14.10;99.90;;;;;;5042916;28;21020;-54
2023/07/18 04:25:55;;;;;;;9.83;4.73;;;14.10;99.90;;;;;;5040674;28;20286;-53
2023/07/18 04:28:20;;;;;;;6.00;4.20;;;14.00;99.90;;;;;;5040540;28;20267;-54
2023/07/18 04:30:46;;;;;;;8.07;4.30;;;14.10;99.90;;;;;;5029977;28;20422;-53
2023/07/18 04:33:12;;;;;;;8.90;4.17;;;14.10;99.90;;;;;;5037858;28;20180;-55
2023/07/18 04:35:39;;;;;;;7.80;4.23;;;14.10;99.90;;;;;;5038033;28;20203;-55
2023/07/18 04:38:05;;;;;;;11.10;3.73;;;14.20;99.90;;;;;;5041053;28;20441;-55
2023/07/18 04:40:31;;;;;;;5.40;3.60;;;14.20;99.90;;;;;;5044642;28;20432;-56
2023/07/18 04:42:56;;;;;;;5.80;4.20;;;14.30;99.90;;;;;;5041946;28;20501;-56
2023/07/18 04:45:22;;;;;;;9.30;4.43;;;14.40;99.90;;;;;;5040870;28;20202;-54
2023/07/18 04:47:48;;;;;;;12.13;4.30;;;14.40;99.90;;;;;;5041836;28;20204;-54
2023/07/18 04:50:13;;;;;;;6.80;4.07;;;14.50;99.90;;;;;;5044164;28;20167;-55
2023/07/18 04:52:39;;;;;;;10.77;4.67;;;14.50;99.90;;;;;;5036245;28;20180;-56
2023/07/18 04:55:05;;;;;;;6.53;4.30;;;14.50;99.90;;;;;;5034514;28;20585;-56
2023/07/18 04:57:31;;;;;;;6.30;3.97;;;14.50;99.90;;;;;;5043652;28;20171;-55
2023/07/18 04:59:57;;;;;;;6.87;4.30;;;14.50;99.90;;;;;;5033973;28;20439;-55
2023/07/18 05:02:22;;;;;;;13.30;5.13;;;14.50;99.90;;;;;;5042547;28;20456;-56
2023/07/18 05:04:48;;;;;;;6.13;4.10;;;14.60;99.90;;;;;;5037183;28;20248;-55
2023/07/18 05:07:14;;;;;;;5.33;3.83;;;14.60;99.90;;;;;;5029179;28;20572;-55
2023/07/18 05:09:40;;;;;;;6.30;3.80;;;14.60;99.90;;;;;;5037614;28;20179;-56
2023/07/18 05:12:06;;;;;;;8.67;3.80;;;14.70;99.90;;;;;;5036914;28;20433;-57
2023/07/18 05:14:32;;;;;;;9.90;4.07;;;14.70;99.90;;;;;;5037753;28;20211;-56
2023/07/18 05:16:58;;;;;;;6.23;3.80;;;14.70;99.90;;;;;;5029531;28;20446;-55
2023/07/18 05:19:24;;;;;;;7.33;3.90;;;14.70;99.90;;;;;;5040427;28;20429;-55
2023/07/18 05:21:50;;;;;;;7.57;4.40;;;14.80;99.90;;;;;;5036149;28;20720;-55
2023/07/18 05:24:16;;;;;;;8.90;4.43;;;14.80;99.40;;;;;;5041825;28;20887;-56
2023/07/18 05:26:42;;;;;;;8.73;4.33;;;14.80;99.90;;;;;;5040511;28;20518;-55
2023/07/18 05:29:07;;;;;;;8.60;4.50;;;14.80;99.90;;;;;;5038921;28;20414;-55
2023/07/18 05:31:33;;;;;;;9.13;4.30;;;14.90;99.90;;;;;;5040574;28;20436;-55
2023/07/18 05:33:59;;;;;;;10.13;4.53;;;15.00;99.90;;;;;;5040785;28;20260;-56
2023/07/18 05:36:25;;;;;;;12.40;4.80;;;15.00;99.40;;;;;;5043327;28;20243;-56
2023/07/18 05:38:51;;;;;;;9.80;5.07;;;15.10;99.90;;;;;;5036183;28;20244;-56
2023/07/18 05:41:16;;;;;;;8.37;4.80;;;15.20;99.90;;;;;;5037358;28;20813;-56
2023/07/18 05:43:42;;;;;;;8.27;5.57;;;15.30;99.90;;;;;;5035924;28;20721;-56
2023/07/18 05:46:09;;;;;;;9.60;5.27;;;15.40;99.50;;;;;;5039857;28;20218;-56
2023/07/18 05:48:35;;;;;;;11.30;5.30;;;15.50;99.30;;;;;;5033776;28;20298;-54
2023/07/18 05:51:01;;;;;;;12.70;4.70;;;15.60;99.10;;;;;;5033451;28;20524;-56
2023/07/18 05:53:26;;;;;;;6.87;4.30;;;15.70;97.70;;;;;;5035795;28;20234;-56
2023/07/18 05:55:52;;;;;;;12.40;5.20;;;15.80;97.50;;;;;;5041786;28;21025;-56
2023/07/18 05:58:18;;;;;;;5.67;3.97;;;15.80;94.90;;;;;;5038624;28;20180;-55
2023/07/18 06:00:44;;;;;;;9.23;4.77;;;15.90;94.70;;;;;;5039908;28;20182;-55
2023/07/18 06:03:09;;;;;;;10.27;4.50;;;15.90;94.00;;;;;;5033614;28;20640;-55
2023/07/18 06:05:35;;;;;;;6.00;4.30;;;16.00;94.70;;;;;;5040482;28;20226;-54
2023/07/18 06:08:00;;;;;;;10.10;4.40;;;16.10;94.30;;;;;;5033909;28;20712;-55
2023/07/18 06:10:26;;;;;;;11.73;5.10;;;16.10;93.50;;;;;;5039776;28;20180;-56
2023/07/18 06:12:52;;;;;;;9.83;4.30;;;16.20;93.00;;;;;;5038902;28;20175;-55
2023/07/18 06:15:18;;;;;;;9.00;4.30;;;16.30;92.00;;;;;;5046541;28;20776;-55
2023/07/18 06:17:44;;;;;;;5.80;4.20;;;16.30;90.50;;;;;;5034183;28;20208;-54
2023/07/18 06:20:13;;;;;;;7.37;4.20;;;16.40;90.80;;;;;;5036042;28;20430;-55
2023/07/18 06:22:40;;;;;;;10.83;5.03;;;16.40;90.30;;;;;;5040379;28;20562;-56
2023/07/18 06:25:06;;;;;;;8.30;4.13;;;16.50;86.20;;;;;;5045518;28;21310;-55
2023/07/18 06:27:32;;;;;;;6.90;4.20;;;16.60;86.60;;;;;;5050795;28;20464;-56
2023/07/18 06:29:58;;;;;;;10.37;4.97;;;16.60;88.00;;;;;;5044274;28;20816;-55
2023/07/18 06:32:25;;;;;;;12.43;4.63;;;16.70;86.50;;;;;;5048772;28;20426;-55
2023/07/18 06:34:51;;;;;;;7.30;4.37;;;16.80;85.10;;;;;;5040818;28;20432;-54
2023/07/18 06:37:16;;;;;;;7.40;3.73;;;16.90;86.00;;;;;;5040339;28;20441;-55
2023/07/18 06:39:42;;;;;;;10.43;4.00;;;17.00;85.30;;;;;;5042827;28;20278;-55
2023/07/18 06:42:10;;;;;;;5.47;3.37;;;17.10;83.40;;;;;;5045536;28;20179;-55
2023/07/18 06:44:36;;;;;;;9.03;3.10;;;17.10;81.60;;;;;;5034097;28;20182;-55
2023/07/18 06:47:02;;;;;;;4.20;3.00;;;17.20;78.60;;;;;;5033465;28;20452;-56
2023/07/18 06:49:28;;;;;;;5.17;2.70;;;17.30;77.20;;;;;;5038546;28;20211;-54
2023/07/18 06:51:54;;;;;;;6.90;3.07;;;17.40;75.30;;;;;;5046723;28;20861;-55
2023/07/18 06:54:20;;;;;;;5.73;3.87;;;17.50;72.80;;;;;;5041162;28;20180;-54
2023/07/18 06:56:45;;;;;;;7.17;3.10;;;17.60;72.30;;;;;;5031039;28;20215;-55
2023/07/18 06:59:13;;;;;;;8.23;3.30;;;17.70;71.00;;;;;;5048039;28;20643;-56
2023/07/18 07:01:38;;;;;;;4.40;3.00;;;17.90;71.20;;;;;;5047260;28;20195;-55
2023/07/18 07:04:04;;;;;;;12.20;4.50;;;18.10;70.80;;;;;;5041268;28;20526;-56
2023/07/18 07:06:30;;;;;;;5.57;3.20;;;18.20;70.10;;;;;;5038534;28;20210;-55
2023/07/18 07:08:55;;;;;;;5.30;2.97;;;18.30;70.50;;;;;;5043036;28;20259;-56
2023/07/18 07:11:22;;;;;;;5.07;2.80;;;18.50;69.50;;;;;;5037130;28;20533;-56
2023/07/18 07:13:47;;;;;;;4.30;2.77;;;18.60;68.30;;;;;;5033062;28;20648;-54
2023/07/18 07:16:13;;;;;;;6.40;3.27;;;18.70;67.70;;;;;;5036834;28;20457;-55
2023/07/18 07:18:38;;;;;;;9.50;3.07;;;18.90;67.70;;;;;;5042836;28;20628;-56
2023/07/18 07:21:05;;;;;;;3.60;2.80;;;19.00;67.60;;;;;;5041491;28;20180;-54
2023/07/18 07:23:31;;;;;;;4.50;3.03;;;19.20;67.20;;;;;;5042150;28;20189;-54
2023/07/18 07:25:58;;;;;;;5.75;2.25;;;19.30;67.00;;;;;;5046386;28;20944;-56
2023/07/18 07:28:23;;;;;;;5.30;2.90;;;19.40;65.90;;;;;;5037934;28;20265;-55
2023/07/18 07:30:50;;;;;;;6.07;3.10;;;19.60;64.60;;;;;;5042450;28;21057;-56
2023/07/18 07:33:16;;;;;;;6.23;2.63;;;19.70;64.10;;;;;;5044084;28;20183;-55
2023/07/18 07:35:43;;;;;;;4.13;2.60;;;19.80;63.20;;;;;;5044766;28;20844;-55
2023/07/18 07:38:09;;;;;;;3.83;2.70;;;19.90;63.20;;;;;;5042708;28;20302;-56
2023/07/18 07:40:34;;;;;;;7.23;2.60;;;20.00;63.20;;;;;;5039717;28;20512;-55
2023/07/18 07:43:01;;;;;;;3.43;2.13;;;20.20;61.70;;;;;;5039403;28;20189;-54
2023/07/18 07:45:26;;;;;;;3.60;2.30;;;20.20;61.20;;;;;;5044456;28;20686;-56
2023/07/18 07:47:52;;;;;;;8.10;2.63;;;20.40;60.50;;;;;;5043479;28;20462;-56
2023/07/18 07:50:17;;;;;;;8.53;2.73;;;20.50;59.80;;;;;;5037744;28;20179;-56
2023/07/18 07:52:45;;;;;;;3.77;2.20;;;20.60;59.30;;;;;;5045156;28;20179;-56
2023/07/18 07:55:11;;;;;;;4.07;2.43;;;20.70;59.00;;;;;;5040277;28;20199;-56
2023/07/18 07:57:37;;;;;;;2.77;2.47;;;20.80;57.60;;;;;;5046196;28;20483;-55
2023/07/18 08:00:03;;;;;;;8.47;3.67;;;20.90;57.30;;;;;;5038860;28;20445;-56
2023/07/18 08:02:29;;;;;;;5.80;2.70;;;20.90;57.40;;;;;;5035037;28;20522;-57
2023/07/18 08:04:55;;;;;;;4.57;2.57;;;21.00;57.80;;;;;;5038902;28;20979;-58
2023/07/18 08:07:20;;;;;;;5.50;3.17;;;21.10;58.00;;;;;;5038568;28;20203;-56
2023/07/18 08:09:46;;;;;;;4.60;2.53;;;21.20;57.50;;;;;;5036635;28;20211;-55
2023/07/18 08:12:12;;;;;;;8.47;3.13;;;21.30;57.50;;;;;;5042489;28;20569;-56
2023/07/18 08:14:38;;;;;;;6.03;2.70;;;21.40;57.50;;;;;;5021475;28;20251;-55
2023/07/18 08:17:05;;;;;;;4.60;2.93;;;21.50;57.40;;;;;;5038392;28;20461;-55
2023/07/18 08:19:36;;;;;;;4.10;2.90;;;21.60;57.20;;;;;;5034504;28;20426;-56
2023/07/18 08:22:03;;;;;;;5.37;3.07;;;21.60;56.90;;;;;;5043770;28;20442;-56
2023/07/18 08:24:29;;;;;;;6.80;3.40;;;21.70;57.70;;;;;;5041072;28;20546;-55
2023/07/18 08:26:55;;;;;;;5.50;2.93;;;21.70;57.70;;;;;;5043688;28;20472;-55
2023/07/18 08:29:30;;;;;;;6.93;2.90;;;21.80;58.00;;;;;;5035017;28;20432;-56
2023/07/18 08:31:55;;;;;;;5.47;2.97;;;21.90;58.60;;;;;;5039020;28;20442;-56
2023/07/18 08:34:21;;;;;;;7.10;2.80;;;22.00;58.40;;;;;;5037315;28;20448;-56
2023/07/18 08:36:47;;;;;;;9.40;3.50;;;22.10;58.60;;;;;;5025331;28;20200;-54
2023/07/18 08:39:14;;;;;;;6.57;3.37;;;22.20;59.00;;;;;;5032056;28;20457;-55
2023/07/18 08:41:45;;;;;;;5.00;3.23;;;22.30;58.40;;;;;;5031075;28;20198;-56
2023/07/18 08:44:15;;;;;;;6.93;3.27;;;22.40;58.30;;;;;;5035379;28;20429;-57
2023/07/18 08:46:47;;;;;;;6.63;3.37;;;22.50;57.90;;;;;;5043287;28;20473;-56
2023/07/18 08:49:16;;;;;;;4.63;3.10;;;22.50;57.90;;;;;;5042602;28;20433;-55
2023/07/18 08:51:43;;;;;;;7.50;3.63;;;22.60;57.60;;;;;;5027014;28;20442;-59
2023/07/18 08:54:10;;;;;;;9.50;3.53;;;22.70;57.60;;;;;;5029469;28;20426;-57
2023/07/18 08:56:37;;;;;;;5.73;3.50;;;22.80;57.70;;;;;;5037656;28;20473;-56
2023/07/18 08:59:03;;;;;;;6.20;3.73;;;22.90;57.30;;;;;;5034036;28;20472;-56
2023/07/18 09:01:29;;;;;;;9.53;4.40;;;22.90;56.20;;;;;;5040382;28;20451;-55
2023/07/18 09:03:55;;;;;;;9.77;3.60;;;22.90;55.90;;;;;;5034443;28;20183;-56
2023/07/18 09:06:21;;;;;;;8.70;4.50;;;22.90;55.30;;;;;;5028928;28;20306;-56
2023/07/18 09:08:47;;;;;;;8.10;3.57;;;23.00;56.80;;;;;;5027433;28;20429;-58
2023/07/18 09:11:16;;;;;;;7.67;4.73;;;23.10;57.30;;;;;;5031163;28;20464;-56
2023/07/18 09:13:42;;;;;;;7.70;4.40;;;23.30;57.00;;;;;;5028127;28;20504;-56
2023/07/18 09:16:20;;;;;;;6.63;3.90;;;23.40;56.90;;;;;;5023543;28;21451;-56
2023/07/18 09:18:49;;;;;;;10.07;4.63;;;23.50;56.40;;;;;;5041012;28;20207;-56
2023/07/18 09:21:15;;;;;;;11.60;4.10;;;23.60;55.60;;;;;;5039258;28;20441;-56
2023/07/18 09:23:42;;;;;;;8.37;4.00;;;23.70;55.30;;;;;;5023057;28;20434;-56
2023/07/18 09:26:10;;;;;;;6.83;4.40;;;23.80;55.50;;;;;;5028676;28;20210;-54
2023/07/18 09:28:36;;;;;;;9.43;4.90;;;23.80;55.40;;;;;;5038241;28;20940;-56
2023/07/18 09:31:02;;;;;;;6.97;4.23;;;23.80;55.10;;;;;;5033554;28;20433;-56
2023/07/18 09:33:28;;;;;;;11.13;4.73;;;23.90;55.20;;;;;;5030167;28;20432;-56
2023/07/18 09:35:58;;;;;;;8.93;5.00;;;24.00;56.60;;;;;;5030517;28;20206;-55
2023/07/18 09:38:25;;;;;;;6.73;4.20;;;24.20;57.00;;;;;;5031264;28;20768;-56
2023/07/18 09:40:52;;;;;;;6.43;4.30;;;24.40;57.80;;;;;;5022878;28;20434;-56
2023/07/18 09:43:21;;;;;;;6.60;4.53;;;24.60;57.90;;;;;;5028882;28;20473;-55
2023/07/18 09:45:51;;;;;;;7.93;4.70;;;24.80;58.10;;;;;;5030408;28;20476;-59
2023/07/18 09:48:17;;;;;;;5.77;3.83;;;25.10;57.10;;;;;;5025880;28;20469;-56
2023/07/18 09:50:47;;;;;;;5.57;4.03;;;25.30;56.10;;;;;;5037866;28;20439;-56
2023/07/18 09:53:16;;;;;;;8.47;4.93;;;25.30;54.60;;;;;;5039719;28;20474;-56
2023/07/18 09:55:44;;;;;;;7.90;5.00;;;25.20;54.20;;;;;;5034394;28;20445;-56
2023/07/18 09:58:12;;;;;;;6.73;4.23;;;25.10;54.80;;;;;;5032701;28;21023;-55
2023/07/18 10:00:41;;;;;;;6.50;4.50;;;24.80;55.20;;;;;;5029762;28;20944;-56
2023/07/18 10:03:08;;;;;;;7.53;4.20;;;24.40;55.20;;;;;;5021004;28;21165;-57
2023/07/18 10:05:34;;;;;;;5.67;4.50;;;24.10;56.70;;;;;;5034194;28;20461;-55
2023/07/18 10:08:07;;;;;;;7.37;4.50;;;23.80;56.60;;;;;;5031311;28;20471;-53
2023/07/18 10:10:33;;;;;;;11.23;4.97;;;23.60;56.50;;;;;;5020237;28;20204;-55
2023/07/18 10:13:00;;;;;;;11.47;4.17;;;23.30;57.10;;;;;;5037114;28;20525;-54
2023/07/18 10:15:26;;;;;;;6.43;4.70;;;23.10;57.90;;;;;;5038474;28;20195;-55
2023/07/18 10:17:52;;;;;;;6.63;4.20;;;23.00;58.00;;;;;;5041003;28;20429;-55
2023/07/18 10:20:21;;;;;;;7.70;4.60;;;22.90;58.20;;;;;;5042734;28;21113;-55
2023/07/18 10:22:54;;;;;;;6.93;4.60;;;22.70;57.30;;;;;;5040221;28;20191;-55
2023/07/18 10:25:20;;;;;;;8.93;5.07;;;22.70;57.60;;;;;;5039073;28;20453;-55
2023/07/18 10:27:48;;;;;;;11.03;5.03;;;22.70;58.40;;;;;;5044678;28;20471;-56
2023/07/18 10:30:24;;;;;;;7.40;4.90;;;22.70;59.20;;;;;;5038052;28;20426;-55
2023/07/18 10:32:53;;;;;;;6.77;5.30;;;22.90;59.40;;;;;;5024179;28;20942;-55
2023/07/18 10:35:20;;;;;;;7.87;4.90;;;23.20;59.70;;;;;;5041483;28;20433;-54
2023/07/18 10:38:09;;;;;;;10.00;6.90;;;23.50;58.80;;;;;;5035701;28;20434;-55
2023/07/18 10:40:38;;;;;;;8.90;5.00;;;23.80;59.00;;;;;;5032787;28;20438;-56
2023/07/18 10:43:09;;;;;;;17.13;5.23;;;24.00;57.90;;;;;;5032183;28;20528;-55
2023/07/18 10:45:39;;;;;;;12.40;4.70;;;24.20;56.60;;;;;;5030647;28;20619;-55
2023/07/18 10:48:18;;;;;;;12.77;5.70;;;24.30;56.20;;;;;;5038342;28;20499;-55
2023/07/18 10:50:45;;;;;;;8.03;5.07;;;24.30;56.50;;;;;;5042407;28;20937;-55
2023/07/18 10:53:12;;;;;;;5.93;5.00;;;24.10;56.20;;;;;;5035624;28;20504;-55
2023/07/18 10:55:38;;;;;;;7.20;5.23;;;23.90;56.70;;;;;;5033996;28;20511;-55
2023/07/18 10:58:19;;;;;;;5.93;4.90;;;23.70;57.70;;;;;;5027904;28;20429;-55
2023/07/18 11:00:45;;;;;;;11.90;5.60;;;23.50;58.80;;;;;;5035761;28;20673;-55
2023/07/18 11:03:27;;;;;;;11.53;6.17;;;23.30;61.30;;;;;;5038435;28;20433;-56
2023/07/18 11:05:53;;;;;;;6.80;5.07;;;23.10;63.80;;;;;;5038710;28;20453;-55
2023/07/18 11:08:39;;;;;;;10.10;6.00;;;22.90;65.10;;;;;;5037028;28;20844;-55
2023/07/18 11:11:06;;;;;;;6.30;5.23;;;22.70;67.30;;;;;;5038793;28;20878;-56
2023/07/18 11:13:33;;;;;;;10.17;5.20;;;22.50;67.80;;;;;;5027574;28;20433;-54
2023/07/18 11:16:09;;;;;;;12.40;5.80;;;22.40;66.30;;;;;;5030716;28;20449;-55
2023/07/18 11:18:37;;;;;;;11.67;5.47;;;22.30;68.10;;;;;;5032576;28;20440;-54
2023/07/18 11:21:03;;;;;;;18.33;5.03;;;22.20;69.50;;;;;;5036522;28;20426;-55
2023/07/18 11:23:30;;;;;;;8.97;5.00;;;22.10;70.60;;;;;;5043464;28;20425;-55
2023/07/18 11:25:56;;;;;;;12.20;5.13;;;22.00;71.00;;;;;;5038393;28;20537;-55
2023/07/18 11:28:21;;;;;;;13.73;6.47;;;22.00;71.00;;;;;;5034664;28;20548;-55
2023/07/18 11:30:48;;;;;;;9.37;5.93;;;21.80;72.30;;;;;;5033485;28;20179;-54
2023/07/18 11:33:14;;;;;;;10.03;5.93;;;21.80;74.40;;;;;;5038925;28;20187;-55
2023/07/18 11:35:45;;;;;;;11.73;5.83;;;21.70;77.00;;;;;;5036099;28;20441;-55
2023/07/18 11:38:11;;;;;;;8.67;5.70;;;21.70;81.20;;;;;;5035941;28;20188;-54
2023/07/18 11:40:37;;;;;;;12.60;5.53;;;21.60;90.90;;;;;;5040652;28;20434;-55
2023/07/18 11:43:03;;;;;;;13.63;6.83;;;21.50;92.20;;;;;;5040483;28;20489;-55
2023/07/18 11:45:29;;;;;;;10.17;5.90;;;21.40;94.30;;;;;;5040136;28;20199;-56
2023/07/18 11:47:59;;;;;;;11.60;6.70;;;21.30;97.90;;;;;;5046709;28;20199;-55
2023/07/18 11:50:31;;;;;;;11.47;6.20;;;21.30;99.90;;;;;;5034335;28;20176;-55
2023/07/18 11:52:58;;;;;;;12.33;5.97;;;21.20;99.90;;;;;;5040482;28;20457;-56
2023/07/18 11:55:24;;;;;;;21.57;6.70;;;21.10;99.90;;;;;;5037217;28;20458;-57
2023/07/18 11:57:50;;;;;;;20.97;5.97;;;21.00;99.90;;;;;;5044253;28;20927;-56
2023/07/18 12:00:16;;;;;;;14.47;6.33;;;20.90;99.90;;;;;;5045806;28;20179;-56
2023/07/18 12:02:44;;;;;;;17.23;6.53;;;20.90;99.90;;;;;;5037269;28;20431;-56
2023/07/18 12:05:11;;;;;;;15.53;5.67;;;20.90;99.90;;;;;;5034717;28;20433;-57
2023/07/18 12:07:37;;;;;;;12.57;6.17;;;20.80;99.90;;;;;;5042642;28;20462;-56
2023/07/18 12:10:07;;;;;;;9.80;5.93;;;21.00;99.90;;;;;;5033688;28;20426;-57
2023/07/18 12:12:33;;;;;;;11.93;6.30;;;21.10;99.90;;;;;;5032938;28;20262;-56
2023/07/18 12:15:00;;;;;;;14.47;5.97;;;21.10;99.90;;;;;;5043001;28;20539;-56
2023/07/18 12:17:26;;;;;;;12.70;6.73;;;21.10;99.90;;;;;;5038690;28;20503;-56
2023/07/18 12:19:51;;;;;;;12.40;6.20;;;21.00;99.90;;;;;;5043986;28;20526;-55
2023/07/18 12:22:18;;;;;;;13.37;6.00;;;21.00;99.90;;;;;;5040438;28;20528;-56
2023/07/18 12:24:43;;;;;;;10.30;6.20;;;21.00;99.90;;;;;;5032233;28;20250;-56
2023/07/18 12:27:09;;;;;;;15.23;7.00;;;21.10;99.90;;;;;;5048411;28;20460;-55
2023/07/18 12:29:36;;;;;;;9.73;5.63;;;21.10;99.90;;;;;;5036405;28;20186;-56
2023/07/18 12:32:03;;;;;;;14.63;6.83;;;21.00;99.90;;;;;;5043711;28;20266;-56
2023/07/18 12:34:28;;;;;;;13.87;5.93;;;21.10;99.90;;;;;;5041443;28;20466;-57
2023/07/18 12:36:54;;;;;;;9.30;6.17;;;21.00;99.90;;;;;;5034772;28;20461;-57
2023/07/18 12:39:20;;;;;;;13.87;6.40;;;20.90;99.90;;;;;;5039462;28;20191;-59
2023/07/18 12:41:45;;;;;;;11.33;6.43;;;20.80;99.90;;;;;;5042103;28;20176;-55